createdAt,value
2017-03-07T00:00:31.270Z,10.84
2017-03-07T00:01:19.601Z,10.85
2017-03-07T00:02:08.330Z,10.92
2017-03-07T00:02:57.351Z,10.99
2017-03-07T00:03:45.908Z,11.02
2017-03-07T00:04:34.483Z,11.1
2017-03-07T00:05:23.698Z,11.1
2017-03-07T00:06:12.120Z,11.14
2017-03-07T00:07:00.837Z,10.96
2017-03-07T00:07:49.531Z,11.07
2017-03-07T00:08:38.564Z,11.11
2017-03-07T00:09:27.318Z,11.07
2017-03-07T00:10:15.609Z,11
2017-03-07T00:11:04.410Z,11.1
2017-03-07T00:11:52.977Z,11.07
2017-03-07T00:12:41.938Z,11.07
2017-03-07T00:13:30.744Z,11.11
2017-03-07T00:14:19.076Z,11.14
2017-03-07T00:15:07.851Z,10.97
2017-03-07T00:15:56.461Z,11.07
2017-03-07T00:16:45.837Z,11.06
2017-03-07T00:17:34.489Z,11.04
2017-03-07T00:18:23.268Z,10.99
2017-03-07T00:19:11.618Z,10.96
2017-03-07T00:20:00.133Z,10.88
2017-03-07T00:20:49.350Z,10.79
2017-03-07T00:21:37.903Z,11.02
2017-03-07T00:22:26.747Z,10.96
2017-03-07T00:23:15.128Z,11.06
2017-03-07T00:24:03.874Z,10.96
2017-03-07T00:24:52.950Z,11.14
2017-03-07T00:25:41.138Z,11.21
2017-03-07T00:26:30.243Z,11.21
2017-03-07T00:27:18.447Z,11.18
2017-03-07T00:28:07.436Z,11.18
2017-03-07T00:28:56.323Z,11.17
2017-03-07T00:29:44.405Z,11.21
2017-03-07T00:30:33.853Z,10.96
2017-03-07T00:31:22.154Z,11.02
2017-03-07T00:32:11.091Z,10.97
2017-03-07T00:32:59.574Z,11.11
2017-03-07T00:33:48.034Z,11.03
2017-03-07T00:34:37.347Z,11.03
2017-03-07T00:35:25.577Z,11.1
2017-03-07T00:36:14.313Z,11.07
2017-03-07T00:37:03.245Z,10.96
2017-03-07T00:37:51.421Z,11.09
2017-03-07T00:38:40.782Z,10.97
2017-03-07T00:39:29.056Z,10.96
2017-03-07T00:40:18.204Z,11
2017-03-07T00:41:06.487Z,10.94
2017-03-07T00:41:55.355Z,10.84
2017-03-07T00:42:44.412Z,10.96
2017-03-07T00:43:32.639Z,11
2017-03-07T00:44:21.868Z,11.02
2017-03-07T00:45:10.006Z,10.96
2017-03-07T00:45:58.904Z,10.92
2017-03-07T00:46:47.471Z,10.92
2017-03-07T00:47:36.099Z,10.89
2017-03-07T00:48:24.883Z,10.97
2017-03-07T00:49:13.570Z,10.92
2017-03-07T00:50:01.867Z,10.79
2017-03-07T00:50:50.751Z,10.88
2017-03-07T00:51:39.759Z,10.99
2017-03-07T00:52:28.377Z,10.92
2017-03-07T00:53:16.835Z,10.89
2017-03-07T00:54:05.566Z,10.97
2017-03-07T00:54:54.785Z,11.02
2017-03-07T00:55:43.037Z,10.94
2017-03-07T00:56:32.397Z,10.94
2017-03-07T00:57:20.870Z,10.89
2017-03-07T00:58:09.491Z,10.91
2017-03-07T00:58:58.104Z,11
2017-03-07T00:59:47.253Z,10.88
2017-03-07T01:00:35.600Z,10.89
2017-03-07T01:01:24.227Z,10.7
2017-03-07T01:02:13.329Z,10.63
2017-03-07T01:03:01.899Z,10.78
2017-03-07T01:03:50.227Z,10.81
2017-03-07T01:04:39.331Z,10.84
2017-03-07T01:05:27.553Z,10.86
2017-03-07T01:06:16.341Z,10.81
2017-03-07T01:07:05.123Z,10.76
2017-03-07T01:07:53.850Z,10.66
2017-03-07T01:09:36.240Z,10.6
2017-03-07T01:10:24.697Z,10.67
2017-03-07T01:11:13.387Z,10.67
2017-03-07T01:12:02.366Z,10.73
2017-03-07T01:12:50.333Z,10.7
2017-03-07T01:13:39.101Z,10.64
2017-03-07T01:14:27.887Z,10.68
2017-03-07T01:15:16.527Z,10.52
2017-03-07T01:16:05.315Z,10.6
2017-03-07T01:16:54.365Z,10.79
2017-03-07T01:17:42.604Z,10.78
2017-03-07T01:18:31.476Z,10.81
2017-03-07T01:19:20.162Z,10.76
2017-03-07T01:20:08.957Z,10.86
2017-03-07T01:20:57.505Z,10.89
2017-03-07T01:21:46.436Z,10.91
2017-03-07T01:22:34.915Z,10.94
2017-03-07T01:23:23.989Z,10.92
2017-03-07T01:24:12.342Z,10.85
2017-03-07T01:25:00.880Z,10.88
2017-03-07T01:25:49.919Z,10.82
2017-03-07T01:26:38.489Z,10.79
2017-03-07T01:27:27.408Z,10.67
2017-03-07T01:28:16.352Z,10.78
2017-03-07T01:29:04.586Z,10.7
2017-03-07T01:29:53.434Z,10.79
2017-03-07T01:30:42.238Z,10.71
2017-03-07T01:31:30.933Z,10.71
2017-03-07T01:32:19.197Z,10.66
2017-03-07T01:33:08.098Z,10.63
2017-03-07T01:33:56.656Z,10.68
2017-03-07T01:34:45.701Z,10.73
2017-03-07T01:35:34.062Z,10.73
2017-03-07T01:36:22.835Z,10.63
2017-03-07T01:37:11.417Z,10.61
2017-03-07T01:38:00.064Z,10.48
2017-03-07T01:38:49.310Z,10.42
2017-03-07T01:39:37.621Z,10.48
2017-03-07T01:40:26.664Z,10.51
2017-03-07T01:41:15.123Z,10.53
2017-03-07T01:42:03.730Z,10.59
2017-03-07T01:42:52.735Z,10.29
2017-03-07T01:43:41.243Z,10.32
2017-03-07T01:44:29.808Z,10.34
2017-03-07T01:45:18.944Z,10.36
2017-03-07T01:46:07.190Z,10.42
2017-03-07T01:46:56.092Z,10.52
2017-03-07T01:47:44.769Z,10.42
2017-03-07T01:48:33.042Z,10.4
2017-03-07T01:49:21.540Z,10.2
2017-03-07T01:50:10.434Z,10.23
2017-03-07T01:50:59.409Z,10.23
2017-03-07T01:51:48.367Z,10.27
2017-03-07T01:52:36.659Z,10.38
2017-03-07T01:53:25.433Z,10.3
2017-03-07T01:54:14.379Z,10.18
2017-03-07T01:54:56.225Z,10.2
2017-03-07T01:55:36.699Z,10.23
2017-03-07T01:56:17.193Z,10.27
2017-03-07T01:56:57.704Z,10.34
2017-03-07T01:57:38.217Z,10.29
2017-03-07T01:58:18.651Z,10.18
2017-03-07T01:58:59.145Z,10.26
2017-03-07T01:59:39.637Z,10.29
2017-03-07T02:00:20.146Z,10.29
2017-03-07T02:01:00.647Z,10.32
2017-03-07T02:01:41.218Z,10.32
2017-03-07T02:02:21.663Z,10.3
2017-03-07T02:03:02.145Z,10.36
2017-03-07T02:03:42.642Z,10.29
2017-03-07T02:04:23.114Z,10.29
2017-03-07T02:05:03.639Z,10.26
2017-03-07T02:05:44.089Z,10.33
2017-03-07T02:06:24.596Z,10.29
2017-03-07T02:07:05.124Z,10.27
2017-03-07T02:07:45.566Z,10.22
2017-03-07T02:08:26.044Z,10.11
2017-03-07T02:09:06.540Z,10.12
2017-03-07T02:09:47.016Z,10.15
2017-03-07T02:10:27.466Z,10.25
2017-03-07T02:11:07.986Z,10.15
2017-03-07T02:11:48.473Z,10.17
2017-03-07T02:12:28.936Z,10.17
2017-03-07T02:13:09.522Z,10.18
2017-03-07T02:13:50.083Z,10.11
2017-03-07T02:14:30.532Z,10.18
2017-03-07T02:15:10.978Z,10.14
2017-03-07T02:15:51.574Z,10.22
2017-03-07T02:16:31.999Z,10.17
2017-03-07T02:17:12.508Z,10.08
2017-03-07T02:17:52.966Z,10.17
2017-03-07T02:18:33.461Z,10.18
2017-03-07T02:19:13.972Z,10.08
2017-03-07T02:19:54.489Z,10.08
2017-03-07T02:20:35.004Z,10.05
2017-03-07T02:21:15.509Z,10.12
2017-03-07T02:21:55.972Z,10.09
2017-03-07T02:22:36.565Z,10.08
2017-03-07T02:23:16.987Z,10.18
2017-03-07T02:23:57.473Z,10.08
2017-03-07T02:24:37.954Z,10.01
2017-03-07T02:25:18.413Z,10.01
2017-03-07T02:25:58.900Z,9.87
2017-03-07T02:26:39.416Z,9.86
2017-03-07T02:27:19.898Z,9.93
2017-03-07T02:28:00.356Z,9.97
2017-03-07T02:28:40.884Z,9.99
2017-03-07T02:29:21.363Z,10.05
2017-03-07T02:30:01.875Z,10.04
2017-03-07T02:30:42.319Z,10.02
2017-03-07T02:31:22.855Z,10.02
2017-03-07T02:32:03.281Z,10.02
2017-03-07T02:32:43.830Z,10.07
2017-03-07T02:33:24.291Z,10.05
2017-03-07T02:34:04.755Z,10.08
2017-03-07T02:34:45.265Z,10.09
2017-03-07T02:35:25.742Z,10.08
2017-03-07T02:36:06.286Z,10.15
2017-03-07T02:36:46.769Z,10.08
2017-03-07T02:37:27.196Z,10.25
2017-03-07T02:38:07.753Z,10.22
2017-03-07T02:38:48.338Z,10.17
2017-03-07T02:39:28.867Z,10.09
2017-03-07T02:40:09.491Z,10.07
2017-03-07T02:40:49.933Z,10.07
2017-03-07T02:41:30.468Z,10.08
2017-03-07T02:42:10.965Z,10.15
2017-03-07T02:42:51.431Z,10.23
2017-03-07T02:43:32.010Z,10.23
2017-03-07T02:44:12.523Z,10.01
2017-03-07T02:44:53.033Z,10.01
2017-03-07T02:45:33.484Z,10.07
2017-03-07T02:46:13.995Z,10.09
2017-03-07T02:46:54.496Z,9.96
2017-03-07T02:47:34.929Z,9.94
2017-03-07T02:48:15.449Z,9.9
2017-03-07T02:48:56.003Z,9.99
2017-03-07T02:49:36.501Z,9.99
2017-03-07T02:50:17.009Z,10.08
2017-03-07T02:50:57.482Z,10.08
2017-03-07T02:51:37.936Z,10.07
2017-03-07T02:52:18.492Z,9.97
2017-03-07T02:52:58.982Z,10.07
2017-03-07T02:53:39.574Z,10.05
2017-03-07T02:54:20.058Z,10.05
2017-03-07T02:55:00.567Z,10.07
2017-03-07T02:55:41.016Z,10.01
2017-03-07T02:56:21.510Z,10.02
2017-03-07T02:57:01.977Z,9.93
2017-03-07T02:57:42.495Z,10.07
2017-03-07T02:58:22.990Z,9.94
2017-03-07T02:59:03.467Z,10.05
2017-03-07T02:59:44.024Z,9.9
2017-03-07T03:00:24.539Z,10.01
2017-03-07T03:01:05.079Z,9.91
2017-03-07T03:01:45.479Z,9.87
2017-03-07T03:02:26.029Z,9.75
2017-03-07T03:03:06.474Z,9.74
2017-03-07T03:03:47.000Z,9.86
2017-03-07T03:04:27.464Z,9.81
2017-03-07T03:05:07.957Z,9.84
2017-03-07T03:05:48.395Z,9.86
2017-03-07T03:06:28.888Z,9.89
2017-03-07T03:07:09.428Z,9.83
2017-03-07T03:07:49.902Z,9.94
2017-03-07T03:08:30.365Z,9.81
2017-03-07T03:09:10.834Z,9.86
2017-03-07T03:09:51.330Z,9.83
2017-03-07T03:10:31.781Z,9.83
2017-03-07T03:11:12.310Z,9.83
2017-03-07T03:11:52.770Z,9.83
2017-03-07T03:12:33.593Z,9.79
2017-03-07T03:13:14.064Z,9.78
2017-03-07T03:13:54.574Z,9.86
2017-03-07T03:14:35.115Z,9.79
2017-03-07T03:15:15.575Z,9.79
2017-03-07T03:15:56.090Z,9.89
2017-03-07T03:16:36.552Z,9.81
2017-03-07T03:17:17.024Z,9.89
2017-03-07T03:17:57.573Z,9.87
2017-03-07T03:18:38.091Z,9.75
2017-03-07T03:19:18.589Z,9.72
2017-03-07T03:19:59.034Z,9.81
2017-03-07T03:20:39.530Z,9.78
2017-03-07T03:21:19.992Z,9.81
2017-03-07T03:22:00.469Z,9.83
2017-03-07T03:22:40.959Z,9.97
2017-03-07T03:23:21.560Z,9.86
2017-03-07T03:24:02.000Z,9.96
2017-03-07T03:24:42.544Z,9.89
2017-03-07T03:25:23.025Z,9.99
2017-03-07T03:26:03.538Z,9.96
2017-03-07T03:26:44.038Z,9.96
2017-03-07T03:27:24.513Z,9.99
2017-03-07T03:28:05.009Z,10.12
2017-03-07T03:28:45.486Z,10.11
2017-03-07T03:29:25.974Z,10.11
2017-03-07T03:30:06.500Z,10.04
2017-03-07T03:30:47.041Z,10.05
2017-03-07T03:31:27.496Z,10.08
2017-03-07T03:32:08.063Z,10.09
2017-03-07T03:32:48.625Z,10.02
2017-03-07T03:33:29.123Z,10.04
2017-03-07T03:34:09.710Z,10.04
2017-03-07T03:34:50.154Z,10.07
2017-03-07T03:35:30.709Z,10.05
2017-03-07T03:36:11.087Z,10.08
2017-03-07T03:36:51.592Z,10.05
2017-03-07T03:37:32.083Z,10.11
2017-03-07T03:38:12.685Z,10.2
2017-03-07T03:38:53.150Z,10.15
2017-03-07T03:39:33.612Z,10.09
2017-03-07T03:40:14.110Z,10.18
2017-03-07T03:40:54.661Z,10.2
2017-03-07T03:41:35.167Z,10.17
2017-03-07T03:42:15.732Z,10.08
2017-03-07T03:42:56.109Z,10.02
2017-03-07T03:43:36.643Z,9.94
2017-03-07T03:44:17.164Z,10.05
2017-03-07T03:44:57.642Z,10.04
2017-03-07T03:45:38.122Z,10.05
2017-03-07T03:46:18.589Z,9.99
2017-03-07T03:47:00.087Z,9.93
2017-03-07T03:47:40.576Z,10.08
2017-03-07T03:48:21.136Z,10.04
2017-03-07T03:49:01.666Z,10.07
2017-03-07T03:49:42.146Z,10.05
2017-03-07T03:50:22.575Z,10.04
2017-03-07T03:51:03.080Z,10.09
2017-03-07T03:51:43.582Z,10.17
2017-03-07T03:52:24.040Z,10.09
2017-03-07T03:53:04.528Z,10.17
2017-03-07T03:53:45.027Z,10.04
2017-03-07T03:54:25.530Z,9.96
2017-03-07T03:55:06.018Z,10.11
2017-03-07T03:55:46.480Z,10.11
2017-03-07T03:56:26.968Z,10.04
2017-03-07T03:57:07.468Z,10.05
2017-03-07T03:57:48.077Z,10.08
2017-03-07T03:58:28.515Z,10.02
2017-03-07T03:59:09.024Z,10.07
2017-03-07T03:59:49.536Z,10.18
2017-03-07T04:00:30.047Z,10.15
2017-03-07T04:01:10.536Z,10.11
2017-03-07T04:01:50.987Z,10.11
2017-03-07T04:02:31.454Z,10.22
2017-03-07T04:03:11.987Z,10.14
2017-03-07T04:03:52.453Z,10.15
2017-03-07T04:04:33.010Z,10.12
2017-03-07T04:05:13.410Z,10.12
2017-03-07T04:05:53.956Z,10.05
2017-03-07T04:06:34.415Z,10.08
2017-03-07T04:07:14.906Z,10.08
2017-03-07T04:07:55.456Z,10.17
2017-03-07T04:08:35.924Z,10.17
2017-03-07T04:09:16.402Z,10.15
2017-03-07T04:09:56.922Z,10.17
2017-03-07T04:10:37.418Z,10.23
2017-03-07T04:11:17.863Z,10.08
2017-03-07T04:11:58.463Z,10.11
2017-03-07T04:12:38.858Z,10.08
2017-03-07T04:13:19.396Z,10.05
2017-03-07T04:13:59.848Z,10.02
2017-03-07T04:14:40.372Z,10.05
2017-03-07T04:15:20.918Z,10.04
2017-03-07T04:16:01.417Z,10.17
2017-03-07T04:16:41.943Z,10.18
2017-03-07T04:17:22.459Z,10.17
2017-03-07T04:18:02.894Z,10.11
2017-03-07T04:18:43.396Z,10.11
2017-03-07T04:19:23.919Z,10.18
2017-03-07T04:20:04.346Z,10.15
2017-03-07T04:20:44.845Z,10.22
2017-03-07T04:21:25.339Z,10.2
2017-03-07T04:22:05.817Z,10.22
2017-03-07T04:22:46.331Z,10.11
2017-03-07T04:23:26.760Z,10.11
2017-03-07T04:24:07.327Z,9.99
2017-03-07T04:24:47.933Z,9.96
2017-03-07T04:25:28.308Z,9.93
2017-03-07T04:26:08.806Z,9.94
2017-03-07T04:26:49.938Z,10.02
2017-03-07T04:27:30.370Z,9.94
2017-03-07T04:28:10.885Z,9.99
2017-03-07T04:28:51.388Z,9.99
2017-03-07T04:29:31.929Z,9.99
2017-03-07T04:30:12.369Z,9.99
2017-03-07T04:30:52.861Z,9.94
2017-03-07T04:31:33.327Z,9.87
2017-03-07T04:32:13.849Z,9.9
2017-03-07T04:32:54.577Z,9.97
2017-03-07T04:33:35.053Z,10.08
2017-03-07T04:34:15.518Z,10.12
2017-03-07T04:34:56.103Z,10.04
2017-03-07T04:35:36.573Z,10.07
2017-03-07T04:36:17.095Z,10.15
2017-03-07T04:36:57.539Z,10.05
2017-03-07T04:37:38.072Z,9.96
2017-03-07T04:38:18.540Z,10.14
2017-03-07T04:38:59.064Z,10.23
2017-03-07T04:39:39.553Z,10.17
2017-03-07T04:40:19.987Z,10.11
2017-03-07T04:41:00.472Z,10.14
2017-03-07T04:41:41.026Z,10.11
2017-03-07T04:42:21.498Z,10.18
2017-03-07T04:43:01.991Z,10.08
2017-03-07T04:43:42.516Z,10.07
2017-03-07T04:44:22.973Z,10.11
2017-03-07T04:45:03.472Z,10.18
2017-03-07T04:45:44.037Z,10.18
2017-03-07T04:46:24.507Z,10.12
2017-03-07T04:47:04.940Z,10.07
2017-03-07T04:47:45.456Z,10.22
2017-03-07T04:48:25.957Z,10.15
2017-03-07T04:49:06.527Z,10.2
2017-03-07T04:49:47.031Z,10.15
2017-03-07T04:50:27.525Z,10.02
2017-03-07T04:51:08.069Z,10.05
2017-03-07T04:51:48.562Z,10.15
2017-03-07T04:52:29.707Z,10.07
2017-03-07T04:53:09.554Z,10.09
2017-03-07T04:53:50.031Z,10.22
2017-03-07T04:54:30.557Z,10.17
2017-03-07T04:55:11.016Z,10.17
2017-03-07T04:55:51.512Z,10.17
2017-03-07T04:56:32.161Z,10.18
2017-03-07T04:57:12.648Z,10.17
2017-03-07T04:57:53.127Z,10.2
2017-03-07T04:58:33.616Z,10.18
2017-03-07T04:59:14.201Z,10.15
2017-03-07T04:59:54.657Z,10.11
2017-03-07T05:00:35.110Z,10.07
2017-03-07T05:01:15.645Z,10.12
2017-03-07T05:01:56.130Z,9.97
2017-03-07T05:02:36.597Z,10.01
2017-03-07T05:03:17.180Z,10.04
2017-03-07T05:03:57.624Z,10.05
2017-03-07T05:04:38.119Z,10.02
2017-03-07T05:05:18.603Z,10.02
2017-03-07T05:05:59.104Z,10.01
2017-03-07T05:06:39.591Z,9.79
2017-03-07T05:07:20.062Z,9.75
2017-03-07T05:08:00.563Z,9.83
2017-03-07T05:08:41.032Z,9.89
2017-03-07T05:09:21.557Z,9.99
2017-03-07T05:10:02.225Z,9.94
2017-03-07T05:10:42.728Z,9.91
2017-03-07T05:11:23.271Z,10.02
2017-03-07T05:12:03.802Z,9.94
2017-03-07T05:12:44.309Z,9.94
2017-03-07T05:13:24.758Z,9.89
2017-03-07T05:14:05.263Z,9.96
2017-03-07T05:14:45.754Z,9.97
2017-03-07T05:15:26.264Z,9.94
2017-03-07T05:16:06.740Z,9.93
2017-03-07T05:16:47.266Z,9.9
2017-03-07T05:17:27.751Z,9.96
2017-03-07T05:18:08.225Z,10.02
2017-03-07T05:18:48.738Z,9.93
2017-03-07T05:19:29.213Z,9.94
2017-03-07T05:20:09.695Z,9.76
2017-03-07T05:20:50.163Z,9.78
2017-03-07T05:21:30.691Z,9.94
2017-03-07T05:22:11.176Z,9.84
2017-03-07T05:22:51.652Z,9.86
2017-03-07T05:23:32.183Z,9.94
2017-03-07T05:24:12.754Z,9.89
2017-03-07T05:24:53.298Z,9.93
2017-03-07T05:25:33.756Z,9.99
2017-03-07T05:26:14.260Z,9.75
2017-03-07T05:26:55.031Z,9.86
2017-03-07T05:27:35.515Z,9.81
2017-03-07T05:28:16.001Z,9.94
2017-03-07T05:28:56.461Z,9.96
2017-03-07T05:29:36.995Z,9.94
2017-03-07T05:30:17.558Z,9.91
2017-03-07T05:30:57.991Z,9.9
2017-03-07T05:31:38.468Z,9.96
2017-03-07T05:32:18.945Z,9.94
2017-03-07T05:32:59.509Z,9.94
2017-03-07T05:33:40.247Z,9.99
2017-03-07T05:34:20.697Z,9.94
2017-03-07T05:35:01.239Z,10.09
2017-03-07T05:35:41.747Z,10.07
2017-03-07T05:36:22.255Z,10.08
2017-03-07T05:37:02.758Z,10.04
2017-03-07T05:37:43.303Z,10.08
2017-03-07T05:38:23.809Z,10.05
2017-03-07T05:39:04.340Z,10.18
2017-03-07T05:39:44.842Z,10.18
2017-03-07T05:40:25.319Z,10.07
2017-03-07T05:41:05.820Z,10.07
2017-03-07T05:41:46.364Z,10.08
2017-03-07T05:42:26.835Z,10.12
2017-03-07T05:43:07.338Z,10.08
2017-03-07T05:43:47.790Z,9.99
2017-03-07T05:44:28.279Z,9.94
2017-03-07T05:45:08.818Z,9.94
2017-03-07T05:45:49.312Z,10.02
2017-03-07T05:46:29.804Z,9.97
2017-03-07T05:47:10.304Z,10.01
2017-03-07T05:47:50.804Z,9.91
2017-03-07T05:48:31.324Z,9.96
2017-03-07T05:49:11.797Z,9.93
2017-03-07T05:49:52.261Z,9.86
2017-03-07T05:50:32.894Z,9.93
2017-03-07T05:51:13.387Z,9.97
2017-03-07T05:51:53.866Z,10.02
2017-03-07T05:52:34.350Z,9.91
2017-03-07T05:53:14.859Z,9.96
2017-03-07T05:53:55.338Z,9.96
2017-03-07T05:54:35.839Z,10.05
2017-03-07T05:55:16.371Z,9.93
2017-03-07T05:55:56.836Z,10.08
2017-03-07T05:56:37.378Z,10.12
2017-03-07T05:57:17.978Z,10.07
2017-03-07T05:57:58.435Z,10.09
2017-03-07T05:58:38.970Z,10.04
2017-03-07T05:59:19.486Z,10.11
2017-03-07T05:59:59.958Z,10.07
2017-03-07T06:00:40.386Z,10.08
2017-03-07T06:01:20.884Z,10.07
2017-03-07T06:02:01.519Z,10.04
2017-03-07T06:02:41.991Z,10.12
2017-03-07T06:03:22.519Z,10.09
2017-03-07T06:04:02.980Z,10.07
2017-03-07T06:04:43.543Z,10.14
2017-03-07T06:05:24.129Z,10.12
2017-03-07T06:06:04.649Z,10.02
2017-03-07T06:06:45.250Z,10.07
2017-03-07T06:07:25.725Z,9.96
2017-03-07T06:08:06.239Z,10.05
2017-03-07T06:10:04.103Z,10.14
2017-03-07T06:10:53.055Z,10.05
2017-03-07T06:11:41.768Z,10.11
2017-03-07T06:12:30.541Z,10.17
2017-03-07T06:13:18.871Z,10.05
2017-03-07T06:14:07.524Z,10.05
2017-03-07T06:14:55.879Z,10.25
2017-03-07T06:15:44.786Z,10.18
2017-03-07T06:16:33.274Z,10.18
2017-03-07T06:17:30.237Z,10.09
2017-03-07T06:19:03.404Z,10.04
2017-03-07T06:19:52.193Z,10.17
2017-03-07T06:20:41.961Z,9.93
2017-03-07T06:21:32.837Z,9.94
2017-03-07T06:22:23.004Z,10.12
2017-03-07T06:23:11.012Z,10.05
2017-03-07T06:23:54.519Z,10.07
2017-03-07T06:24:35.029Z,10.2
2017-03-07T06:25:15.508Z,10.2
2017-03-07T06:25:55.986Z,10.22
2017-03-07T06:26:36.492Z,10.29
2017-03-07T06:27:16.969Z,10.18
2017-03-07T06:27:57.465Z,10.07
2017-03-07T06:28:38.167Z,10.09
2017-03-07T06:29:18.613Z,10.01
2017-03-07T06:29:59.188Z,9.89
2017-03-07T06:30:39.671Z,9.99
2017-03-07T06:31:20.345Z,9.96
2017-03-07T06:32:00.899Z,10.08
2017-03-07T06:32:41.377Z,9.99
2017-03-07T06:33:22.063Z,10.01
2017-03-07T06:34:02.561Z,10.09
2017-03-07T06:34:43.195Z,10.01
2017-03-07T06:35:23.849Z,10.05
2017-03-07T06:36:04.263Z,10.02
2017-03-07T06:36:44.684Z,10.22
2017-03-07T06:37:26.727Z,10.17
2017-03-07T06:38:07.472Z,10.18
2017-03-07T06:38:48.449Z,10.11
2017-03-07T06:40:48.679Z,10.08
2017-03-07T06:41:37.783Z,9.99
2017-03-07T06:42:26.877Z,9.89
2017-03-07T06:43:14.588Z,9.99
2017-03-07T06:44:04.385Z,9.79
2017-03-07T06:44:53.157Z,9.91
2017-03-07T06:45:41.788Z,9.81
2017-03-07T06:46:30.552Z,9.96
2017-03-07T06:47:20.272Z,10.11
2017-03-07T06:48:09.287Z,10.18
2017-03-07T06:48:57.724Z,10.11
2017-03-07T06:49:47.102Z,10.07
2017-03-07T06:54:53.894Z,10.38
2017-03-07T06:55:37.262Z,10.42
2017-03-07T06:56:17.789Z,10.4
2017-03-07T06:56:58.556Z,10.47
2017-03-07T06:57:39.073Z,10.4
2017-03-07T06:58:20.177Z,10.34
2017-03-07T06:59:00.787Z,10.42
2017-03-07T06:59:41.375Z,10.42
2017-03-07T07:00:21.824Z,10.41
2017-03-07T07:01:02.352Z,10.36
2017-03-07T07:01:43.236Z,10.4
2017-03-07T07:02:24.899Z,10.3
2017-03-07T07:03:05.668Z,10.3
2017-03-07T07:03:46.187Z,10.23
2017-03-07T07:04:26.669Z,10.3
2017-03-07T07:05:07.174Z,10.32
2017-03-07T07:05:47.651Z,10.3
2017-03-07T07:06:28.128Z,10.27
2017-03-07T07:07:08.607Z,10.29
2017-03-07T07:07:49.116Z,10.4
2017-03-07T07:08:29.625Z,10.32
2017-03-07T07:09:10.147Z,10.34
2017-03-07T07:09:50.578Z,10.38
2017-03-07T07:10:31.070Z,10.33
2017-03-07T07:11:11.937Z,10.36
2017-03-07T07:11:52.399Z,10.26
2017-03-07T07:12:33.352Z,10.12
2017-03-07T07:13:14.046Z,10.23
2017-03-07T07:13:54.663Z,10.3
2017-03-07T07:14:38.548Z,10.32
2017-03-07T07:15:16.485Z,10.42
2017-03-07T07:15:56.998Z,10.44
2017-03-07T07:16:37.457Z,10.4
2017-03-07T07:17:18.342Z,10.41
2017-03-07T07:18:00.630Z,10.52
2017-03-07T07:18:41.284Z,10.53
2017-03-07T07:19:21.771Z,10.78
2017-03-07T07:20:02.297Z,10.84
2017-03-07T07:20:42.792Z,10.56
2017-03-07T07:21:24.061Z,10.66
2017-03-07T07:22:04.536Z,10.88
2017-03-07T07:22:45.046Z,11.02
2017-03-07T07:23:25.572Z,11.09
2017-03-07T07:24:06.113Z,11.06
2017-03-07T07:24:46.633Z,11.21
2017-03-07T07:25:27.038Z,11.39
2017-03-07T07:26:07.591Z,11.54
2017-03-07T07:26:48.128Z,11.61
2017-03-07T07:27:28.737Z,11.65
2017-03-07T07:28:09.367Z,11.72
2017-03-07T07:28:49.785Z,11.67
2017-03-07T07:29:30.695Z,11.75
2017-03-07T07:30:14.784Z,11.8
2017-03-07T07:30:55.881Z,11.83
2017-03-07T07:31:36.696Z,11.79
2017-03-07T07:32:20.824Z,11.95
2017-03-07T07:33:01.635Z,12.04
2017-03-07T07:33:42.203Z,12.05
2017-03-07T07:34:29.251Z,12.17
2017-03-07T07:35:09.507Z,12.14
2017-03-07T07:35:50.019Z,12.28
2017-03-07T07:36:31.662Z,12.41
2017-03-07T07:37:15.398Z,12.28
2017-03-07T07:37:56.762Z,12.42
2017-03-07T07:38:37.311Z,12.35
2017-03-07T07:39:18.067Z,12.39
2017-03-07T07:41:37.493Z,12.6
2017-03-07T07:42:25.984Z,12.62
2017-03-07T07:45:43.316Z,12.57
2017-03-07T07:46:31.867Z,12.59
2017-03-07T07:47:19.924Z,12.6
2017-03-07T07:48:06.847Z,12.67
2017-03-07T07:55:11.992Z,12.71
2017-03-07T08:18:15.961Z,13.28
2017-03-07T08:32:49.974Z,14.12
2017-03-07T08:33:39.226Z,14.25
2017-03-07T08:34:27.534Z,14.12
2017-03-07T08:38:11.318Z,14.24
2017-03-07T08:39:00.612Z,14.32
2017-03-07T08:39:45.534Z,14.24
2017-03-07T08:40:25.994Z,14.29
2017-03-07T08:41:07.808Z,14.33
2017-03-07T08:41:48.211Z,14.27
2017-03-07T08:42:28.714Z,14.37
2017-03-07T08:43:09.334Z,14.25
2017-03-07T08:43:49.803Z,14.15
2017-03-07T08:44:30.243Z,14.25
2017-03-07T08:45:10.788Z,14.27
2017-03-07T08:45:51.281Z,14.25
2017-03-07T08:46:31.862Z,14.27
2017-03-07T08:47:15.446Z,14.36
2017-03-07T08:47:55.892Z,14.43
2017-03-07T08:48:36.528Z,14.47
2017-03-07T08:49:17.143Z,14.5
2017-03-07T08:49:57.628Z,14.39
2017-03-07T08:50:38.314Z,14.22
2017-03-07T08:51:18.796Z,14.24
2017-03-07T08:51:59.306Z,14.24
2017-03-07T08:52:40.456Z,14.32
2017-03-07T08:53:21.011Z,14.2
2017-03-07T08:54:01.430Z,14.29
2017-03-07T08:54:41.960Z,14.32
2017-03-07T08:55:22.924Z,14.4
2017-03-07T09:12:30.513Z,14.81
2017-03-07T09:14:06.374Z,14.73
2017-03-07T09:15:02.341Z,14.62
2017-03-07T09:20:09.198Z,14.8
2017-03-07T09:22:52.961Z,14.8
2017-03-07T09:25:19.600Z,14.73
2017-03-07T09:28:06.159Z,14.81
2017-03-07T09:28:49.978Z,14.84
2017-03-07T09:29:30.524Z,14.94
2017-03-07T09:30:11.442Z,14.68
2017-03-07T09:30:51.989Z,14.37
2017-03-07T09:31:35.496Z,14.51
2017-03-07T09:32:16.018Z,14.68
2017-03-07T09:32:56.635Z,14.78
2017-03-07T09:33:37.315Z,14.69
2017-03-07T09:34:17.832Z,14.8
2017-03-07T09:34:58.489Z,14.83
2017-03-07T09:35:39.191Z,14.89
2017-03-07T09:36:19.875Z,14.99
2017-03-07T09:37:00.343Z,14.99
2017-03-07T09:37:41.051Z,15.01
2017-03-07T09:38:23.376Z,15.2
2017-03-07T09:39:03.785Z,15.11
2017-03-07T09:39:44.365Z,15.25
2017-03-07T09:40:24.902Z,15.17
2017-03-07T09:41:05.361Z,15.27
2017-03-07T09:41:45.864Z,15.17
2017-03-07T09:42:26.625Z,15.03
2017-03-07T09:43:07.064Z,15.1
2017-03-07T09:43:47.597Z,15.13
2017-03-07T09:44:28.227Z,14.92
2017-03-07T09:45:08.782Z,15.03
2017-03-07T09:45:49.315Z,15.06
2017-03-07T09:46:31.516Z,15.09
2017-03-07T09:47:12.272Z,15.02
2017-03-07T09:47:52.793Z,14.91
2017-03-07T09:48:33.590Z,14.89
2017-03-07T09:49:14.527Z,14.86
2017-03-07T09:49:58.007Z,14.77
2017-03-07T09:50:38.432Z,14.81
2017-03-07T09:51:22.254Z,14.62
2017-03-07T09:52:02.727Z,14.15
2017-03-07T09:52:43.407Z,13.81
2017-03-07T09:53:23.916Z,13.62
2017-03-07T09:54:04.432Z,13.96
2017-03-07T09:54:45.141Z,14.03
2017-03-07T09:55:26.610Z,13.96
2017-03-07T09:56:07.076Z,14.03
2017-03-07T09:56:48.588Z,14.12
2017-03-07T09:57:31.789Z,14.1
2017-03-07T09:58:13.904Z,14.29
2017-03-07T09:58:54.483Z,14.29
2017-03-07T09:59:35.039Z,14.37
2017-03-07T10:00:15.674Z,14.32
2017-03-07T10:00:56.180Z,14.43
2017-03-07T10:01:37.050Z,14.4
2017-03-07T10:02:17.565Z,14.43
2017-03-07T10:02:58.223Z,14.37
2017-03-07T10:03:38.721Z,14.4
2017-03-07T10:04:19.326Z,14.4
2017-03-07T10:05:00.455Z,14.39
2017-03-07T10:05:41.482Z,14.39
2017-03-07T10:06:22.181Z,14.37
2017-03-07T10:07:02.764Z,14.36
2017-03-07T10:07:43.311Z,14.24
2017-03-07T10:08:23.789Z,14.27
2017-03-07T10:09:04.450Z,14.14
2017-03-07T10:09:45.569Z,14.21
2017-03-07T10:10:29.932Z,14.15
2017-03-07T10:11:17.385Z,14.21
2017-03-07T10:11:58.092Z,14.15
2017-03-07T10:12:38.824Z,14.17
2017-03-07T10:13:19.324Z,14.27
2017-03-07T10:14:00.266Z,14.25
2017-03-07T10:14:41.254Z,14.29
2017-03-07T10:15:21.791Z,14.12
2017-03-07T10:16:02.313Z,14.17
2017-03-07T10:16:42.867Z,14.21
2017-03-07T10:17:23.497Z,14.12
2017-03-07T10:18:03.921Z,14.17
2017-03-07T10:21:58.014Z,13.92
2017-03-07T10:22:45.815Z,13.79
2017-03-07T10:24:23.870Z,13.97
2017-03-07T10:25:11.863Z,14.12
2017-03-07T10:27:06.517Z,14.21
2017-03-07T10:29:04.650Z,14.36
2017-03-07T10:30:47.933Z,14.37
2017-03-07T10:31:36.523Z,14.5
2017-03-07T10:34:48.372Z,14.81
2017-03-07T10:37:08.612Z,14.94
2017-03-07T10:37:59.633Z,14.99
2017-03-07T10:39:33.090Z,15.09
2017-03-07T10:40:16.149Z,15.16
2017-03-07T10:40:56.289Z,15.25
2017-03-07T10:41:36.815Z,15.32
2017-03-07T10:42:18.235Z,15.39
2017-03-07T10:42:58.744Z,15.36
2017-03-07T10:43:39.522Z,15.39
2017-03-07T10:44:22.621Z,15.38
2017-03-07T10:45:03.154Z,15.44
2017-03-07T10:45:43.987Z,15.41
2017-03-07T10:46:24.460Z,15.5
2017-03-07T10:47:05.004Z,15.6
2017-03-07T10:47:45.494Z,15.65
2017-03-07T10:48:26.031Z,15.69
2017-03-07T10:49:06.503Z,15.68
2017-03-07T10:49:47.345Z,15.75
2017-03-07T10:54:15.049Z,15.87
2017-03-07T10:55:02.743Z,15.74
2017-03-07T10:55:49.129Z,15.92